sensor_id;sensor_type;location;lat;lon;timestamp;P1;durP1;ratioP1;P2;durP2;ratioP2
18592;SDS011;9426;54.118;17.948;2022-09-25T00:00:53;40.70;;;20.33;;
18592;SDS011;9426;54.118;17.948;2022-09-25T00:06:20;35.27;;;18.87;;
18592;SDS011;9426;54.118;17.948;2022-09-25T00:11:45;36.03;;;18.97;;
18592;SDS011;9426;54.118;17.948;2022-09-25T00:17:09;34.00;;;17.60;;
18592;SDS011;9426;54.118;17.948;2022-09-25T00:22:32;32.10;;;16.40;;
18592;SDS011;9426;54.118;17.948;2022-09-25T00:27:56;27.03;;;14.50;;
18592;SDS011;9426;54.118;17.948;2022-09-25T00:33:20;29.80;;;16.47;;
18592;SDS011;9426;54.118;17.948;2022-09-25T00:38:43;32.20;;;16.67;;
18592;SDS011;9426;54.118;17.948;2022-09-25T00:50:10;43.33;;;20.23;;
18592;SDS011;9426;54.118;17.948;2022-09-25T00:55:39;36.63;;;17.57;;
18592;SDS011;9426;54.118;17.948;2022-09-25T01:01:04;32.97;;;16.83;;
18592;SDS011;9426;54.118;17.948;2022-09-25T01:06:30;26.93;;;14.07;;
18592;SDS011;9426;54.118;17.948;2022-09-25T01:11:54;29.13;;;14.90;;
18592;SDS011;9426;54.118;17.948;2022-09-25T01:17:19;31.70;;;16.63;;
18592;SDS011;9426;54.118;17.948;2022-09-25T01:22:53;29.97;;;15.63;;
18592;SDS011;9426;54.118;17.948;2022-09-25T01:34:27;27.50;;;14.23;;
18592;SDS011;9426;54.118;17.948;2022-09-25T01:39:59;30.63;;;16.20;;
18592;SDS011;9426;54.118;17.948;2022-09-25T01:45:32;34.23;;;16.53;;
18592;SDS011;9426;54.118;17.948;2022-09-25T01:51:02;31.23;;;16.50;;
18592;SDS011;9426;54.118;17.948;2022-09-25T01:56:28;28.63;;;16.27;;
18592;SDS011;9426;54.118;17.948;2022-09-25T02:01:56;26.30;;;14.93;;
18592;SDS011;9426;54.118;17.948;2022-09-25T02:07:24;21.63;;;12.87;;
18592;SDS011;9426;54.118;17.948;2022-09-25T02:12:55;26.80;;;14.77;;
18592;SDS011;9426;54.118;17.948;2022-09-25T02:18:26;23.43;;;13.50;;
18592;SDS011;9426;54.118;17.948;2022-09-25T02:24:10;31.37;;;18.13;;
18592;SDS011;9426;54.118;17.948;2022-09-25T02:29:40;26.67;;;15.80;;
18592;SDS011;9426;54.118;17.948;2022-09-25T02:35:06;24.00;;;14.13;;
18592;SDS011;9426;54.118;17.948;2022-09-25T02:40:32;21.10;;;12.67;;
18592;SDS011;9426;54.118;17.948;2022-09-25T02:46:05;21.17;;;13.53;;
18592;SDS011;9426;54.118;17.948;2022-09-25T02:51:38;29.63;;;15.53;;
18592;SDS011;9426;54.118;17.948;2022-09-25T02:57:07;29.63;;;16.27;;
18592;SDS011;9426;54.118;17.948;2022-09-25T03:02:35;28.83;;;16.07;;
18592;SDS011;9426;54.118;17.948;2022-09-25T03:08:02;28.00;;;14.40;;
18592;SDS011;9426;54.118;17.948;2022-09-25T03:13:44;21.20;;;12.50;;
18592;SDS011;9426;54.118;17.948;2022-09-25T03:19:07;18.27;;;11.13;;
18592;SDS011;9426;54.118;17.948;2022-09-25T03:24:32;29.53;;;16.63;;
18592;SDS011;9426;54.118;17.948;2022-09-25T03:29:55;22.47;;;13.80;;
18592;SDS011;9426;54.118;17.948;2022-09-25T03:35:18;22.83;;;13.40;;
18592;SDS011;9426;54.118;17.948;2022-09-25T03:40:43;21.50;;;12.10;;
18592;SDS011;9426;54.118;17.948;2022-09-25T03:46:07;21.97;;;14.20;;
18592;SDS011;9426;54.118;17.948;2022-09-25T03:51:32;24.53;;;14.67;;
18592;SDS011;9426;54.118;17.948;2022-09-25T03:56:57;19.93;;;12.97;;
18592;SDS011;9426;54.118;17.948;2022-09-25T04:02:20;17.13;;;11.73;;
18592;SDS011;9426;54.118;17.948;2022-09-25T04:07:44;20.10;;;11.90;;
18592;SDS011;9426;54.118;17.948;2022-09-25T04:13:09;20.17;;;12.33;;
18592;SDS011;9426;54.118;17.948;2022-09-25T04:18:33;17.80;;;11.70;;
18592;SDS011;9426;54.118;17.948;2022-09-25T04:23:57;27.57;;;15.53;;
18592;SDS011;9426;54.118;17.948;2022-09-25T04:29:39;28.60;;;17.50;;
18592;SDS011;9426;54.118;17.948;2022-09-25T04:35:03;23.83;;;15.03;;
18592;SDS011;9426;54.118;17.948;2022-09-25T04:40:26;29.00;;;16.10;;
18592;SDS011;9426;54.118;17.948;2022-09-25T04:45:51;27.03;;;15.00;;
18592;SDS011;9426;54.118;17.948;2022-09-25T04:51:14;28.47;;;16.37;;
18592;SDS011;9426;54.118;17.948;2022-09-25T04:56:37;31.87;;;17.00;;
18592;SDS011;9426;54.118;17.948;2022-09-25T05:02:02;30.50;;;18.37;;
18592;SDS011;9426;54.118;17.948;2022-09-25T05:07:25;33.27;;;19.40;;
18592;SDS011;9426;54.118;17.948;2022-09-25T05:12:53;29.23;;;17.83;;
18592;SDS011;9426;54.118;17.948;2022-09-25T05:18:19;29.17;;;16.77;;
18592;SDS011;9426;54.118;17.948;2022-09-25T05:23:44;28.27;;;15.97;;
18592;SDS011;9426;54.118;17.948;2022-09-25T05:29:08;27.37;;;15.13;;
18592;SDS011;9426;54.118;17.948;2022-09-25T05:34:32;24.97;;;14.90;;
18592;SDS011;9426;54.118;17.948;2022-09-25T05:39:56;21.73;;;13.17;;
18592;SDS011;9426;54.118;17.948;2022-09-25T05:45:19;21.37;;;13.20;;
18592;SDS011;9426;54.118;17.948;2022-09-25T05:50:45;27.57;;;15.83;;
18592;SDS011;9426;54.118;17.948;2022-09-25T05:56:12;34.43;;;19.43;;
18592;SDS011;9426;54.118;17.948;2022-09-25T06:01:36;35.07;;;19.83;;
18592;SDS011;9426;54.118;17.948;2022-09-25T06:07:02;41.77;;;22.53;;
18592;SDS011;9426;54.118;17.948;2022-09-25T06:12:27;36.53;;;20.93;;
18592;SDS011;9426;54.118;17.948;2022-09-25T06:17:51;32.47;;;19.33;;
18592;SDS011;9426;54.118;17.948;2022-09-25T06:23:16;25.47;;;14.87;;
18592;SDS011;9426;54.118;17.948;2022-09-25T06:28:40;22.20;;;13.63;;
18592;SDS011;9426;54.118;17.948;2022-09-25T06:34:07;24.87;;;13.67;;
18592;SDS011;9426;54.118;17.948;2022-09-25T06:39:34;22.83;;;13.93;;
18592;SDS011;9426;54.118;17.948;2022-09-25T06:44:57;23.73;;;13.27;;
18592;SDS011;9426;54.118;17.948;2022-09-25T06:50:21;19.07;;;11.07;;
18592;SDS011;9426;54.118;17.948;2022-09-25T06:55:47;19.07;;;11.47;;
18592;SDS011;9426;54.118;17.948;2022-09-25T07:01:11;19.93;;;11.53;;
18592;SDS011;9426;54.118;17.948;2022-09-25T07:06:35;17.47;;;10.17;;
18592;SDS011;9426;54.118;17.948;2022-09-25T07:12:01;19.47;;;10.23;;
18592;SDS011;9426;54.118;17.948;2022-09-25T07:17:27;14.27;;;10.07;;
18592;SDS011;9426;54.118;17.948;2022-09-25T07:22:51;17.73;;;11.00;;
18592;SDS011;9426;54.118;17.948;2022-09-25T07:28:16;16.20;;;10.73;;
18592;SDS011;9426;54.118;17.948;2022-09-25T07:33:40;18.03;;;11.43;;
18592;SDS011;9426;54.118;17.948;2022-09-25T07:39:04;22.47;;;14.80;;
18592;SDS011;9426;54.118;17.948;2022-09-25T07:44:34;17.00;;;10.87;;
18592;SDS011;9426;54.118;17.948;2022-09-25T07:49:58;20.47;;;13.07;;
18592;SDS011;9426;54.118;17.948;2022-09-25T07:55:21;22.63;;;12.70;;
18592;SDS011;9426;54.118;17.948;2022-09-25T08:00:46;21.57;;;13.07;;
18592;SDS011;9426;54.118;17.948;2022-09-25T08:06:10;31.93;;;16.97;;
18592;SDS011;9426;54.118;17.948;2022-09-25T08:11:34;31.70;;;16.20;;
18592;SDS011;9426;54.118;17.948;2022-09-25T08:16:59;36.37;;;17.13;;
18592;SDS011;9426;54.118;17.948;2022-09-25T08:22:23;32.63;;;15.87;;
18592;SDS011;9426;54.118;17.948;2022-09-25T08:27:46;67.37;;;26.30;;
18592;SDS011;9426;54.118;17.948;2022-09-25T08:33:11;40.77;;;17.80;;
18592;SDS011;9426;54.118;17.948;2022-09-25T08:38:35;40.73;;;17.57;;
18592;SDS011;9426;54.118;17.948;2022-09-25T08:43:59;23.10;;;12.13;;
18592;SDS011;9426;54.118;17.948;2022-09-25T08:49:28;33.67;;;15.23;;
18592;SDS011;9426;54.118;17.948;2022-09-25T08:54:56;22.37;;;10.73;;
18592;SDS011;9426;54.118;17.948;2022-09-25T09:00:20;13.63;;;7.70;;
18592;SDS011;9426;54.118;17.948;2022-09-25T09:05:46;10.77;;;6.57;;
18592;SDS011;9426;54.118;17.948;2022-09-25T09:11:14;15.57;;;7.60;;
18592;SDS011;9426;54.118;17.948;2022-09-25T09:16:42;11.13;;;6.60;;
18592;SDS011;9426;54.118;17.948;2022-09-25T09:22:10;13.37;;;5.90;;
18592;SDS011;9426;54.118;17.948;2022-09-25T09:27:48;11.73;;;6.13;;
18592;SDS011;9426;54.118;17.948;2022-09-25T09:33:37;11.33;;;5.70;;
18592;SDS011;9426;54.118;17.948;2022-09-25T09:39:19;9.87;;;5.57;;
18592;SDS011;9426;54.118;17.948;2022-09-25T09:44:51;9.20;;;5.13;;
18592;SDS011;9426;54.118;17.948;2022-09-25T09:50:23;6.97;;;4.57;;
18592;SDS011;9426;54.118;17.948;2022-09-25T09:56:04;10.83;;;6.67;;
18592;SDS011;9426;54.118;17.948;2022-09-25T10:01:35;9.70;;;5.90;;
18592;SDS011;9426;54.118;17.948;2022-09-25T10:07:02;7.00;;;4.60;;
18592;SDS011;9426;54.118;17.948;2022-09-25T10:12:29;17.80;;;7.17;;
18592;SDS011;9426;54.118;17.948;2022-09-25T10:17:55;9.90;;;6.50;;
18592;SDS011;9426;54.118;17.948;2022-09-25T10:23:33;11.40;;;6.03;;
18592;SDS011;9426;54.118;17.948;2022-09-25T10:29:02;8.30;;;5.70;;
18592;SDS011;9426;54.118;17.948;2022-09-25T10:34:27;8.33;;;4.50;;
18592;SDS011;9426;54.118;17.948;2022-09-25T10:39:59;8.03;;;4.47;;
18592;SDS011;9426;54.118;17.948;2022-09-25T10:45:29;11.67;;;4.70;;
18592;SDS011;9426;54.118;17.948;2022-09-25T10:51:04;4.93;;;3.13;;
18592;SDS011;9426;54.118;17.948;2022-09-25T10:56:29;5.77;;;3.57;;
18592;SDS011;9426;54.118;17.948;2022-09-25T11:01:58;5.63;;;3.20;;
18592;SDS011;9426;54.118;17.948;2022-09-25T11:07:22;5.17;;;3.10;;
18592;SDS011;9426;54.118;17.948;2022-09-25T11:12:48;7.60;;;3.43;;
18592;SDS011;9426;54.118;17.948;2022-09-25T11:18:29;5.53;;;3.20;;
18592;SDS011;9426;54.118;17.948;2022-09-25T11:24:04;4.97;;;2.57;;
18592;SDS011;9426;54.118;17.948;2022-09-25T11:29:37;3.97;;;2.73;;
18592;SDS011;9426;54.118;17.948;2022-09-25T11:41:05;7.00;;;2.77;;
18592;SDS011;9426;54.118;17.948;2022-09-25T11:46:43;4.40;;;3.10;;
18592;SDS011;9426;54.118;17.948;2022-09-25T11:52:19;5.97;;;2.93;;
18592;SDS011;9426;54.118;17.948;2022-09-25T11:57:55;4.57;;;2.77;;
18592;SDS011;9426;54.118;17.948;2022-09-25T12:03:32;6.20;;;2.80;;
18592;SDS011;9426;54.118;17.948;2022-09-25T12:09:08;5.53;;;3.47;;
18592;SDS011;9426;54.118;17.948;2022-09-25T12:14:43;6.85;;;3.80;;
18592;SDS011;9426;54.118;17.948;2022-09-25T12:20:13;5.90;;;3.17;;
18592;SDS011;9426;54.118;17.948;2022-09-25T12:25:52;4.97;;;3.10;;
18592;SDS011;9426;54.118;17.948;2022-09-25T12:31:27;5.18;;;3.17;;
18592;SDS011;9426;54.118;17.948;2022-09-25T12:37:02;6.77;;;3.77;;
18592;SDS011;9426;54.118;17.948;2022-09-25T12:42:42;6.90;;;3.77;;
18592;SDS011;9426;54.118;17.948;2022-09-25T12:48:13;5.87;;;4.03;;
18592;SDS011;9426;54.118;17.948;2022-09-25T12:53:43;5.53;;;3.23;;
18592;SDS011;9426;54.118;17.948;2022-09-25T12:59:13;6.17;;;3.53;;
18592;SDS011;9426;54.118;17.948;2022-09-25T13:04:53;4.67;;;3.07;;
18592;SDS011;9426;54.118;17.948;2022-09-25T13:10:28;4.47;;;2.90;;
18592;SDS011;9426;54.118;17.948;2022-09-25T13:16:02;4.67;;;2.97;;
18592;SDS011;9426;54.118;17.948;2022-09-25T13:21:33;3.20;;;2.37;;
18592;SDS011;9426;54.118;17.948;2022-09-25T13:27:04;4.30;;;3.20;;
18592;SDS011;9426;54.118;17.948;2022-09-25T13:32:34;4.57;;;3.53;;
18592;SDS011;9426;54.118;17.948;2022-09-25T13:38:09;5.00;;;3.47;;
18592;SDS011;9426;54.118;17.948;2022-09-25T13:50:17;3.93;;;2.90;;
18592;SDS011;9426;54.118;17.948;2022-09-25T13:56:10;4.70;;;3.03;;
18592;SDS011;9426;54.118;17.948;2022-09-25T14:01:56;3.67;;;2.60;;
18592;SDS011;9426;54.118;17.948;2022-09-25T14:07:48;3.10;;;2.30;;
18592;SDS011;9426;54.118;17.948;2022-09-25T14:13:20;3.47;;;2.63;;
18592;SDS011;9426;54.118;17.948;2022-09-25T14:18:54;3.53;;;2.63;;
18592;SDS011;9426;54.118;17.948;2022-09-25T14:24:25;6.23;;;3.63;;
18592;SDS011;9426;54.118;17.948;2022-09-25T14:30:06;4.37;;;3.17;;
18592;SDS011;9426;54.118;17.948;2022-09-25T14:35:42;4.47;;;2.90;;
18592;SDS011;9426;54.118;17.948;2022-09-25T14:47:16;4.90;;;3.50;;
18592;SDS011;9426;54.118;17.948;2022-09-25T14:52:50;7.07;;;3.70;;
18592;SDS011;9426;54.118;17.948;2022-09-25T14:58:23;8.00;;;3.60;;
18592;SDS011;9426;54.118;17.948;2022-09-25T15:03:56;14.50;;;8.33;;
18592;SDS011;9426;54.118;17.948;2022-09-25T15:09:29;25.10;;;14.00;;
18592;SDS011;9426;54.118;17.948;2022-09-25T15:15:03;23.83;;;13.63;;
18592;SDS011;9426;54.118;17.948;2022-09-25T15:20:37;23.33;;;13.90;;
18592;SDS011;9426;54.118;17.948;2022-09-25T15:26:15;60.63;;;31.90;;
18592;SDS011;9426;54.118;17.948;2022-09-25T15:31:45;29.63;;;15.80;;
18592;SDS011;9426;54.118;17.948;2022-09-25T15:37:20;20.30;;;11.00;;
18592;SDS011;9426;54.118;17.948;2022-09-25T15:42:52;19.57;;;10.70;;
18592;SDS011;9426;54.118;17.948;2022-09-25T15:48:23;18.57;;;9.30;;
18592;SDS011;9426;54.118;17.948;2022-09-25T15:53:59;25.60;;;14.53;;
18592;SDS011;9426;54.118;17.948;2022-09-25T15:59:33;20.07;;;11.17;;
18592;SDS011;9426;54.118;17.948;2022-09-25T16:05:29;19.70;;;11.27;;
18592;SDS011;9426;54.118;17.948;2022-09-25T16:11:13;28.10;;;13.87;;
18592;SDS011;9426;54.118;17.948;2022-09-25T16:16:48;25.80;;;13.40;;
18592;SDS011;9426;54.118;17.948;2022-09-25T16:22:19;25.27;;;13.70;;
18592;SDS011;9426;54.118;17.948;2022-09-25T16:27:51;23.93;;;13.57;;
18592;SDS011;9426;54.118;17.948;2022-09-25T16:33:25;25.23;;;13.57;;
18592;SDS011;9426;54.118;17.948;2022-09-25T16:39:09;24.60;;;13.60;;
18592;SDS011;9426;54.118;17.948;2022-09-25T16:44:42;24.97;;;14.03;;
18592;SDS011;9426;54.118;17.948;2022-09-25T16:50:19;21.90;;;13.23;;
18592;SDS011;9426;54.118;17.948;2022-09-25T16:55:49;24.47;;;13.50;;
18592;SDS011;9426;54.118;17.948;2022-09-25T17:01:21;23.03;;;13.63;;
18592;SDS011;9426;54.118;17.948;2022-09-25T17:06:51;25.40;;;13.60;;
18592;SDS011;9426;54.118;17.948;2022-09-25T17:12:23;19.03;;;12.07;;
18592;SDS011;9426;54.118;17.948;2022-09-25T17:17:56;24.87;;;14.23;;
18592;SDS011;9426;54.118;17.948;2022-09-25T17:23:29;28.93;;;16.23;;
18592;SDS011;9426;54.118;17.948;2022-09-25T17:28:57;36.30;;;22.37;;
18592;SDS011;9426;54.118;17.948;2022-09-25T17:34:32;45.33;;;26.60;;
18592;SDS011;9426;54.118;17.948;2022-09-25T17:40:01;44.67;;;26.67;;
18592;SDS011;9426;54.118;17.948;2022-09-25T17:45:35;45.33;;;25.33;;
18592;SDS011;9426;54.118;17.948;2022-09-25T17:51:14;55.53;;;28.83;;
18592;SDS011;9426;54.118;17.948;2022-09-25T17:56:44;52.67;;;28.43;;
18592;SDS011;9426;54.118;17.948;2022-09-25T18:02:14;60.33;;;30.63;;
18592;SDS011;9426;54.118;17.948;2022-09-25T18:07:46;60.97;;;33.37;;
18592;SDS011;9426;54.118;17.948;2022-09-25T18:13:15;66.37;;;38.03;;
18592;SDS011;9426;54.118;17.948;2022-09-25T18:18:44;59.00;;;33.30;;
18592;SDS011;9426;54.118;17.948;2022-09-25T18:24:29;58.23;;;32.80;;
18592;SDS011;9426;54.118;17.948;2022-09-25T18:29:57;53.17;;;31.13;;
18592;SDS011;9426;54.118;17.948;2022-09-25T18:35:25;48.30;;;28.23;;
18592;SDS011;9426;54.118;17.948;2022-09-25T18:40:54;47.23;;;27.10;;
18592;SDS011;9426;54.118;17.948;2022-09-25T18:46:25;40.97;;;24.63;;
18592;SDS011;9426;54.118;17.948;2022-09-25T18:51:54;39.70;;;22.37;;
18592;SDS011;9426;54.118;17.948;2022-09-25T18:57:27;28.43;;;17.43;;
18592;SDS011;9426;54.118;17.948;2022-09-25T19:02:51;29.30;;;19.27;;
18592;SDS011;9426;54.118;17.948;2022-09-25T19:08:16;28.83;;;17.47;;
18592;SDS011;9426;54.118;17.948;2022-09-25T19:13:40;38.23;;;21.13;;
18592;SDS011;9426;54.118;17.948;2022-09-25T19:19:04;55.27;;;29.53;;
18592;SDS011;9426;54.118;17.948;2022-09-25T19:24:27;52.27;;;27.70;;
18592;SDS011;9426;54.118;17.948;2022-09-25T19:29:53;118.87;;;54.47;;
18592;SDS011;9426;54.118;17.948;2022-09-25T19:35:16;219.53;;;97.33;;
18592;SDS011;9426;54.118;17.948;2022-09-25T19:40:40;258.87;;;107.00;;
18592;SDS011;9426;54.118;17.948;2022-09-25T19:46:04;218.80;;;93.73;;
18592;SDS011;9426;54.118;17.948;2022-09-25T19:51:28;204.30;;;90.40;;
18592;SDS011;9426;54.118;17.948;2022-09-25T19:56:51;194.97;;;88.87;;
18592;SDS011;9426;54.118;17.948;2022-09-25T20:02:16;194.47;;;88.80;;
18592;SDS011;9426;54.118;17.948;2022-09-25T20:07:39;212.47;;;95.67;;
18592;SDS011;9426;54.118;17.948;2022-09-25T20:13:02;181.47;;;85.13;;
18592;SDS011;9426;54.118;17.948;2022-09-25T20:18:27;163.03;;;78.23;;
18592;SDS011;9426;54.118;17.948;2022-09-25T20:23:51;163.50;;;76.07;;
18592;SDS011;9426;54.118;17.948;2022-09-25T20:29:15;181.07;;;80.00;;
18592;SDS011;9426;54.118;17.948;2022-09-25T20:34:41;174.30;;;83.67;;
18592;SDS011;9426;54.118;17.948;2022-09-25T20:40:04;201.83;;;93.53;;
18592;SDS011;9426;54.118;17.948;2022-09-25T20:45:28;210.60;;;103.93;;
18592;SDS011;9426;54.118;17.948;2022-09-25T20:50:53;212.23;;;104.77;;
18592;SDS011;9426;54.118;17.948;2022-09-25T20:56:16;229.10;;;112.67;;
18592;SDS011;9426;54.118;17.948;2022-09-25T21:01:40;242.37;;;118.93;;
18592;SDS011;9426;54.118;17.948;2022-09-25T21:07:05;197.10;;;99.93;;
18592;SDS011;9426;54.118;17.948;2022-09-25T21:12:30;172.77;;;84.50;;
18592;SDS011;9426;54.118;17.948;2022-09-25T21:17:53;159.17;;;77.17;;
18592;SDS011;9426;54.118;17.948;2022-09-25T21:23:18;156.57;;;77.57;;
18592;SDS011;9426;54.118;17.948;2022-09-25T21:28:42;147.43;;;71.83;;
18592;SDS011;9426;54.118;17.948;2022-09-25T21:34:08;139.10;;;69.00;;
18592;SDS011;9426;54.118;17.948;2022-09-25T21:39:34;149.03;;;75.63;;
18592;SDS011;9426;54.118;17.948;2022-09-25T21:44:57;151.40;;;80.07;;
18592;SDS011;9426;54.118;17.948;2022-09-25T21:50:21;169.03;;;88.97;;
18592;SDS011;9426;54.118;17.948;2022-09-25T21:55:46;139.47;;;72.60;;
18592;SDS011;9426;54.118;17.948;2022-09-25T22:01:09;126.63;;;62.63;;
18592;SDS011;9426;54.118;17.948;2022-09-25T22:06:35;140.60;;;76.67;;
18592;SDS011;9426;54.118;17.948;2022-09-25T22:12:01;106.83;;;58.17;;
18592;SDS011;9426;54.118;17.948;2022-09-25T22:17:24;113.17;;;61.37;;
18592;SDS011;9426;54.118;17.948;2022-09-25T22:22:47;108.47;;;60.27;;
18592;SDS011;9426;54.118;17.948;2022-09-25T22:28:12;95.03;;;53.27;;
18592;SDS011;9426;54.118;17.948;2022-09-25T22:33:36;95.87;;;51.23;;
18592;SDS011;9426;54.118;17.948;2022-09-25T22:38:59;80.23;;;46.20;;
18592;SDS011;9426;54.118;17.948;2022-09-25T22:44:24;96.27;;;53.93;;
18592;SDS011;9426;54.118;17.948;2022-09-25T22:49:47;75.40;;;43.30;;
18592;SDS011;9426;54.118;17.948;2022-09-25T22:55:11;73.70;;;42.03;;
18592;SDS011;9426;54.118;17.948;2022-09-25T23:00:36;63.27;;;36.70;;
18592;SDS011;9426;54.118;17.948;2022-09-25T23:06:03;53.53;;;32.93;;
18592;SDS011;9426;54.118;17.948;2022-09-25T23:11:26;53.43;;;31.63;;
18592;SDS011;9426;54.118;17.948;2022-09-25T23:16:52;53.63;;;32.20;;
18592;SDS011;9426;54.118;17.948;2022-09-25T23:22:16;70.83;;;41.67;;
18592;SDS011;9426;54.118;17.948;2022-09-25T23:27:40;50.53;;;33.20;;
18592;SDS011;9426;54.118;17.948;2022-09-25T23:33:04;50.33;;;31.37;;
18592;SDS011;9426;54.118;17.948;2022-09-25T23:38:27;56.70;;;32.50;;
18592;SDS011;9426;54.118;17.948;2022-09-25T23:43:51;57.20;;;34.53;;
18592;SDS011;9426;54.118;17.948;2022-09-25T23:49:17;50.77;;;31.50;;
18592;SDS011;9426;54.118;17.948;2022-09-25T23:54:40;48.23;;;31.00;;
